Time;durP1;ratioP1;P1;durP2;ratioP2;P2;SDS_P1;SDS_P2;PMS_P1;PMS_P2;Temp;Humidity;BMP_temperature;BMP_pressure;BME280_temperature;BME280_humidity;BME280_pressure;Samples;Min_cycle;Max_cycle;Signal;HPM_P1;HPM_P2
2024/01/25 00:01:54;;;;;;;44.70;10.23;;;;;;;;;;5012227;28;25067;-63
2024/01/25 00:04:20;;;;;;;55.85;9.32;;;;;;;;;;5011212;28;25059;-63
2024/01/25 00:06:46;;;;;;;55.13;9.02;;;;;;;;;;4987343;28;25096;-65
2024/01/25 00:09:11;;;;;;;46.83;9.90;;;;;;;;;;5006974;28;25059;-64
2024/01/25 00:11:37;;;;;;;53.28;10.05;;;;;;;;;;5007859;28;25110;-63
2024/01/25 00:14:04;;;;;;;52.28;10.02;;;;;;;;;;5008751;28;25128;-63
2024/01/25 00:16:30;;;;;;;52.15;9.50;;;;;;;;;;5001692;28;25070;-64
2024/01/25 00:18:56;;;;;;;47.38;10.43;;;;;;;;;;4989417;28;25065;-64
2024/01/25 00:21:22;;;;;;;42.15;8.95;;;;;;;;;;5007033;28;25087;-65
2024/01/25 00:23:48;;;;;;;52.67;12.00;;;;;;;;;;5008095;28;25094;-64
2024/01/25 00:26:14;;;;;;;50.72;9.45;;;;;;;;;;5006925;28;25099;-63
2024/01/25 00:28:40;;;;;;;43.95;9.35;;;;;;;;;;5008293;28;25148;-63
2024/01/25 00:31:06;;;;;;;52.67;9.93;;;;;;;;;;5005341;28;25075;-63
2024/01/25 00:33:32;;;;;;;42.50;9.57;;;;;;;;;;5022328;28;25073;-64
2024/01/25 00:35:58;;;;;;;44.50;8.90;;;;;;;;;;5005672;28;25072;-65
2024/01/25 00:38:26;;;;;;;52.85;8.73;;;;;;;;;;5002606;28;25069;-64
2024/01/25 00:40:52;;;;;;;48.53;10.18;;;;;;;;;;5007102;28;25081;-63
2024/01/25 00:43:18;;;;;;;43.35;9.57;;;;;;;;;;5006718;28;25077;-64
2024/01/25 00:45:45;;;;;;;54.55;10.77;;;;;;;;;;5016190;28;25068;-63
2024/01/25 00:48:12;;;;;;;55.08;10.27;;;;;;;;;;5013190;28;25096;-63
2024/01/25 00:50:38;;;;;;;48.88;10.98;;;;;;;;;;5003772;28;25061;-64
2024/01/25 00:53:04;;;;;;;52.58;9.85;;;;;;;;;;5002239;28;25060;-64
2024/01/25 00:55:30;;;;;;;51.47;9.75;;;;;;;;;;4998425;28;25075;-63
2024/01/25 00:57:56;;;;;;;45.78;10.20;;;;;;;;;;5010360;28;25139;-64
2024/01/25 01:00:23;;;;;;;49.15;9.18;;;;;;;;;;5010797;28;25099;-64
2024/01/25 01:02:49;;;;;;;48.63;10.52;;;;;;;;;;5007059;28;25052;-65
2024/01/25 01:05:15;;;;;;;53.35;10.85;;;;;;;;;;4996102;28;25150;-66
2024/01/25 01:07:42;;;;;;;47.08;9.27;;;;;;;;;;4997764;28;25065;-62
2024/01/25 01:10:08;;;;;;;50.00;9.27;;;;;;;;;;5006918;28;25063;-64
2024/01/25 01:12:35;;;;;;;52.78;9.02;;;;;;;;;;4996838;28;25171;-64
2024/01/25 01:15:01;;;;;;;47.17;9.75;;;;;;;;;;4998641;28;25100;-64
2024/01/25 01:17:27;;;;;;;48.95;10.05;;;;;;;;;;4997548;28;25106;-63
2024/01/25 01:19:53;;;;;;;45.60;9.48;;;;;;;;;;5006616;28;25066;-64
2024/01/25 01:22:19;;;;;;;60.08;10.57;;;;;;;;;;4991995;28;25076;-63
2024/01/25 01:24:45;;;;;;;49.88;9.48;;;;;;;;;;4993758;28;25092;-65
2024/01/25 01:27:11;;;;;;;64.47;11.63;;;;;;;;;;4997712;28;25167;-64
2024/01/25 01:29:37;;;;;;;59.30;10.75;;;;;;;;;;5003141;28;25142;-65
2024/01/25 01:32:03;;;;;;;57.75;9.55;;;;;;;;;;5000978;28;25082;-64
2024/01/25 01:34:29;;;;;;;51.42;11.35;;;;;;;;;;4997569;28;25073;-63
2024/01/25 01:36:55;;;;;;;53.10;9.93;;;;;;;;;;4989030;28;25132;-64
2024/01/25 01:39:21;;;;;;;42.70;9.43;;;;;;;;;;5005940;28;25140;-66
2024/01/25 01:41:48;;;;;;;56.58;9.80;;;;;;;;;;4998436;28;25124;-66
2024/01/25 01:44:14;;;;;;;53.50;10.52;;;;;;;;;;4989032;28;25072;-65
2024/01/25 01:46:41;;;;;;;62.03;12.10;;;;;;;;;;5003090;28;25054;-65
2024/01/25 01:49:11;;;;;;;61.50;10.63;;;;;;;;;;4993602;28;25072;-64
2024/01/25 01:51:37;;;;;;;48.25;9.60;;;;;;;;;;4995216;28;25073;-63
2024/01/25 01:54:03;;;;;;;55.33;10.10;;;;;;;;;;4999382;28;25129;-64
2024/01/25 01:56:29;;;;;;;55.03;10.80;;;;;;;;;;4998217;28;25052;-63
2024/01/25 01:59:01;;;;;;;53.55;10.40;;;;;;;;;;4990473;28;25151;-64
2024/01/25 02:01:28;;;;;;;43.05;10.50;;;;;;;;;;5002941;28;25057;-65
2024/01/25 02:03:55;;;;;;;45.25;10.63;;;;;;;;;;4997421;28;25077;-63
2024/01/25 02:06:22;;;;;;;64.75;11.30;;;;;;;;;;4992258;28;25097;-63
2024/01/25 02:08:50;;;;;;;58.88;12.07;;;;;;;;;;4995859;28;25069;-63
2024/01/25 02:11:16;;;;;;;53.42;11.38;;;;;;;;;;4990494;28;25038;-64
2024/01/25 02:13:42;;;;;;;48.13;11.00;;;;;;;;;;5000481;28;25084;-63
2024/01/25 02:16:08;;;;;;;59.10;12.20;;;;;;;;;;4999277;28;25063;-64
2024/01/25 02:18:34;;;;;;;52.05;11.00;;;;;;;;;;4999553;28;25080;-63
2024/01/25 02:21:01;;;;;;;50.20;11.05;;;;;;;;;;4996848;28;25160;-64
2024/01/25 02:23:27;;;;;;;56.08;11.57;;;;;;;;;;4996587;28;25078;-64
2024/01/25 02:25:53;;;;;;;48.30;9.43;;;;;;;;;;4997112;28;25098;-64
2024/01/25 02:28:19;;;;;;;56.80;11.18;;;;;;;;;;5002005;28;25093;-63
2024/01/25 02:30:45;;;;;;;58.60;11.15;;;;;;;;;;5000032;28;25093;-63
2024/01/25 02:33:11;;;;;;;69.93;11.43;;;;;;;;;;4992703;28;25082;-64
2024/01/25 02:35:38;;;;;;;52.83;11.77;;;;;;;;;;4992152;28;25064;-63
2024/01/25 02:38:04;;;;;;;54.72;10.07;;;;;;;;;;4995295;28;25067;-63
2024/01/25 02:40:30;;;;;;;51.83;11.77;;;;;;;;;;5004108;28;25064;-63
2024/01/25 02:42:56;;;;;;;52.70;10.80;;;;;;;;;;5003635;28;25085;-64
2024/01/25 02:45:22;;;;;;;50.80;10.55;;;;;;;;;;4986336;28;25144;-62
2024/01/25 02:47:48;;;;;;;48.42;10.07;;;;;;;;;;4994812;28;25158;-64
2024/01/25 02:50:14;;;;;;;49.75;10.80;;;;;;;;;;5002949;28;25080;-64
2024/01/25 02:52:41;;;;;;;51.08;11.85;;;;;;;;;;5003415;28;25088;-64
2024/01/25 02:55:07;;;;;;;66.70;11.82;;;;;;;;;;5002899;28;25136;-64
2024/01/25 02:57:33;;;;;;;67.78;12.23;;;;;;;;;;4999610;28;25142;-65
2024/01/25 02:59:59;;;;;;;49.50;11.10;;;;;;;;;;4999567;28;25092;-63
2024/01/25 03:02:25;;;;;;;58.28;9.45;;;;;;;;;;4997416;28;25101;-62
2024/01/25 03:04:51;;;;;;;61.58;10.73;;;;;;;;;;5007403;28;25064;-63
2024/01/25 03:07:17;;;;;;;48.30;10.90;;;;;;;;;;5004161;28;25069;-64
2024/01/25 03:09:43;;;;;;;52.13;11.60;;;;;;;;;;5005658;28;25071;-63
2024/01/25 03:12:10;;;;;;;54.75;13.07;;;;;;;;;;5011191;28;25061;-65
2024/01/25 03:14:36;;;;;;;62.33;11.20;;;;;;;;;;5003022;28;25149;-63
2024/01/25 03:17:02;;;;;;;55.72;10.88;;;;;;;;;;4999176;28;25073;-64
2024/01/25 03:19:28;;;;;;;52.80;11.38;;;;;;;;;;4995835;28;25056;-65
2024/01/25 03:21:54;;;;;;;57.22;12.02;;;;;;;;;;4992676;28;25141;-64
2024/01/25 03:24:21;;;;;;;58.65;11.65;;;;;;;;;;5006519;28;25108;-64
2024/01/25 03:26:47;;;;;;;61.70;10.80;;;;;;;;;;4999962;28;25061;-64
2024/01/25 03:29:13;;;;;;;54.22;11.63;;;;;;;;;;4999948;28;25096;-64
2024/01/25 03:31:39;;;;;;;56.95;11.77;;;;;;;;;;4998596;28;25088;-65
2024/01/25 03:34:05;;;;;;;52.58;12.38;;;;;;;;;;5009371;28;25106;-63
2024/01/25 03:36:31;;;;;;;57.35;12.02;;;;;;;;;;5005113;28;25139;-63
2024/01/25 03:38:58;;;;;;;65.82;11.40;;;;;;;;;;5008696;28;25162;-65
2024/01/25 03:41:24;;;;;;;50.65;10.73;;;;;;;;;;5009757;28;25130;-67
2024/01/25 03:43:50;;;;;;;64.68;11.30;;;;;;;;;;5002233;28;25149;-63
2024/01/25 03:46:16;;;;;;;62.70;11.35;;;;;;;;;;4998966;28;25053;-64
2024/01/25 03:48:42;;;;;;;62.88;10.98;;;;;;;;;;5005319;28;25081;-66
2024/01/25 03:51:09;;;;;;;49.10;10.98;;;;;;;;;;4997771;28;25056;-66
2024/01/25 03:53:35;;;;;;;47.88;10.90;;;;;;;;;;5001016;28;25059;-65
2024/01/25 03:56:01;;;;;;;75.63;13.15;;;;;;;;;;4999572;28;25094;-65
2024/01/25 03:58:26;;;;;;;49.60;11.55;;;;;;;;;;5003669;28;25103;-67
2024/01/25 04:00:53;;;;;;;54.67;10.75;;;;;;;;;;5004082;28;25178;-65
2024/01/25 04:03:19;;;;;;;48.15;11.98;;;;;;;;;;5004744;28;25061;-65
2024/01/25 04:05:45;;;;;;;56.90;11.48;;;;;;;;;;5000501;28;25068;-65
2024/01/25 04:08:11;;;;;;;62.28;12.63;;;;;;;;;;5000397;28;25125;-67
2024/01/25 04:10:37;;;;;;;59.88;12.48;;;;;;;;;;5003350;28;25146;-66
2024/01/25 04:13:07;;;;;;;61.97;10.68;;;;;;;;;;5004265;28;25080;-67
2024/01/25 04:15:33;;;;;;;52.25;10.43;;;;;;;;;;5008190;28;25088;-66
2024/01/25 04:17:59;;;;;;;59.78;12.05;;;;;;;;;;5005173;28;25067;-66
2024/01/25 04:20:25;;;;;;;64.13;11.73;;;;;;;;;;5004771;28;25064;-64
2024/01/25 04:22:51;;;;;;;55.72;10.85;;;;;;;;;;5007195;28;25075;-65
2024/01/25 04:25:17;;;;;;;71.50;12.52;;;;;;;;;;5001999;28;25129;-65
2024/01/25 04:27:43;;;;;;;64.95;11.57;;;;;;;;;;5003664;28;25117;-65
2024/01/25 04:30:10;;;;;;;66.60;14.52;;;;;;;;;;5004624;28;25063;-66
2024/01/25 04:32:35;;;;;;;63.45;12.20;;;;;;;;;;4998466;28;25058;-65
2024/01/25 04:35:02;;;;;;;64.35;11.73;;;;;;;;;;5003651;28;25075;-67
2024/01/25 04:37:28;;;;;;;55.80;12.82;;;;;;;;;;5002984;28;25082;-66
2024/01/25 04:39:54;;;;;;;54.42;10.93;;;;;;;;;;5011538;28;25058;-66
2024/01/25 04:42:20;;;;;;;56.58;11.95;;;;;;;;;;5009545;28;25085;-66
2024/01/25 04:44:46;;;;;;;59.70;11.65;;;;;;;;;;4998138;28;25068;-65
2024/01/25 04:47:12;;;;;;;60.45;11.35;;;;;;;;;;5003757;28;25066;-65
2024/01/25 04:49:38;;;;;;;42.97;12.10;;;;;;;;;;5002080;28;25125;-64
2024/01/25 04:52:04;;;;;;;59.75;12.48;;;;;;;;;;5005660;28;25149;-66
2024/01/25 04:54:30;;;;;;;64.80;12.77;;;;;;;;;;5007997;28;25073;-65
2024/01/25 04:56:56;;;;;;;70.60;12.73;;;;;;;;;;5000308;28;25112;-69
2024/01/25 04:59:22;;;;;;;71.82;11.73;;;;;;;;;;5001962;28;25050;-65
2024/01/25 05:01:48;;;;;;;74.03;12.27;;;;;;;;;;4995711;28;25150;-66
2024/01/25 05:04:14;;;;;;;57.17;11.82;;;;;;;;;;4997203;28;25086;-65
2024/01/25 05:06:40;;;;;;;53.83;11.07;;;;;;;;;;5000739;28;25104;-67
2024/01/25 05:09:08;;;;;;;59.85;12.00;;;;;;;;;;5007118;28;25128;-67
2024/01/25 05:11:34;;;;;;;55.30;11.25;;;;;;;;;;5003178;28;25074;-67
2024/01/25 05:14:00;;;;;;;60.17;12.43;;;;;;;;;;4991845;28;25078;-65
2024/01/25 05:16:26;;;;;;;60.30;11.63;;;;;;;;;;5006245;28;25056;-66
2024/01/25 05:18:52;;;;;;;60.70;11.85;;;;;;;;;;5004627;28;25063;-65
2024/01/25 05:21:18;;;;;;;58.28;10.80;;;;;;;;;;5016865;28;25070;-65
2024/01/25 05:23:44;;;;;;;51.53;11.85;;;;;;;;;;5022435;28;25052;-66
2024/01/25 05:26:10;;;;;;;61.70;11.65;;;;;;;;;;5012495;28;25048;-66
2024/01/25 05:28:36;;;;;;;55.92;11.65;;;;;;;;;;5010500;28;25120;-68
2024/01/25 05:31:02;;;;;;;63.63;12.68;;;;;;;;;;5008290;28;24962;-66
2024/01/25 05:33:28;;;;;;;49.13;11.68;;;;;;;;;;4997007;28;25097;-65
2024/01/25 05:35:53;;;;;;;58.55;11.77;;;;;;;;;;5000731;28;25095;-66
2024/01/25 05:38:19;;;;;;;59.40;11.73;;;;;;;;;;5004210;28;25084;-66
2024/01/25 05:40:45;;;;;;;67.47;11.50;;;;;;;;;;5005963;28;25119;-66
2024/01/25 05:43:12;;;;;;;58.60;10.88;;;;;;;;;;4995767;28;25063;-67
2024/01/25 05:45:37;;;;;;;69.40;12.77;;;;;;;;;;5000950;28;25066;-66
2024/01/25 05:48:03;;;;;;;52.55;12.77;;;;;;;;;;4999226;28;25057;-65
2024/01/25 05:50:29;;;;;;;57.85;12.00;;;;;;;;;;5004530;28;25152;-65
2024/01/25 05:52:55;;;;;;;60.17;10.93;;;;;;;;;;5003031;28;25065;-66
2024/01/25 05:55:22;;;;;;;40.83;11.23;;;;;;;;;;5000099;28;25158;-65
2024/01/25 05:57:48;;;;;;;54.35;11.38;;;;;;;;;;5004804;28;25075;-65
2024/01/25 06:00:15;;;;;;;59.70;11.20;;;;;;;;;;4999976;28;25062;-65
2024/01/25 06:02:43;;;;;;;52.88;11.23;;;;;;;;;;5002618;28;25049;-66
2024/01/25 06:05:09;;;;;;;53.10;11.70;;;;;;;;;;5002994;28;25073;-65
2024/01/25 06:07:35;;;;;;;53.58;12.73;;;;;;;;;;5001338;28;25054;-66
2024/01/25 06:10:01;;;;;;;49.65;10.63;;;;;;;;;;5003576;28;25158;-65
2024/01/25 06:12:28;;;;;;;57.47;12.38;;;;;;;;;;5001472;28;25098;-65
2024/01/25 06:14:54;;;;;;;54.88;10.68;;;;;;;;;;5003409;28;25166;-65
2024/01/25 06:17:20;;;;;;;61.17;11.15;;;;;;;;;;4996288;28;25096;-65
2024/01/25 06:19:46;;;;;;;52.20;12.15;;;;;;;;;;4998341;28;25069;-65
2024/01/25 06:22:13;;;;;;;59.65;12.25;;;;;;;;;;5004664;28;25053;-64
2024/01/25 06:24:39;;;;;;;64.30;12.05;;;;;;;;;;5004487;28;25088;-64
2024/01/25 06:27:05;;;;;;;61.53;12.63;;;;;;;;;;5003397;28;25062;-67
2024/01/25 06:29:31;;;;;;;57.45;12.45;;;;;;;;;;5006397;28;25066;-65
2024/01/25 06:31:57;;;;;;;55.83;11.10;;;;;;;;;;5006769;28;25057;-65
2024/01/25 06:34:23;;;;;;;48.45;10.50;;;;;;;;;;5003737;28;25114;-64
2024/01/25 06:36:49;;;;;;;49.92;11.43;;;;;;;;;;5004195;28;25058;-65
2024/01/25 06:39:15;;;;;;;62.47;11.90;;;;;;;;;;5001926;28;25140;-65
2024/01/25 06:41:41;;;;;;;67.95;13.70;;;;;;;;;;4999642;28;25069;-67
2024/01/25 06:44:08;;;;;;;60.80;10.85;;;;;;;;;;4999966;28;25112;-65
2024/01/25 06:46:34;;;;;;;59.58;12.32;;;;;;;;;;5006755;28;25104;-67
2024/01/25 06:49:00;;;;;;;59.83;11.73;;;;;;;;;;4998659;28;25197;-66
2024/01/25 06:51:26;;;;;;;56.30;13.05;;;;;;;;;;4998042;28;25091;-65
2024/01/25 06:53:51;;;;;;;44.97;11.55;;;;;;;;;;5003445;28;25177;-67
2024/01/25 06:56:18;;;;;;;57.80;11.90;;;;;;;;;;4997553;28;25095;-65
2024/01/25 06:58:43;;;;;;;70.15;11.98;;;;;;;;;;5006599;28;25063;-66
2024/01/25 07:01:09;;;;;;;73.90;11.38;;;;;;;;;;4999909;28;29714;-66
2024/01/25 07:03:35;;;;;;;67.28;12.30;;;;;;;;;;5007082;28;25058;-66
2024/01/25 07:06:02;;;;;;;55.83;12.73;;;;;;;;;;5003084;28;25133;-67
2024/01/25 07:08:28;;;;;;;46.22;11.40;;;;;;;;;;5002804;28;25064;-67
2024/01/25 07:10:55;;;;;;;57.50;12.35;;;;;;;;;;5004075;28;25102;-67
2024/01/25 07:13:21;;;;;;;59.22;12.73;;;;;;;;;;5000086;28;25157;-65
2024/01/25 07:15:47;;;;;;;64.90;12.35;;;;;;;;;;5003136;28;25072;-65
2024/01/25 07:18:13;;;;;;;58.08;11.88;;;;;;;;;;5000915;28;25148;-66
2024/01/25 07:20:39;;;;;;;67.45;12.10;;;;;;;;;;5000765;28;25052;-65
2024/01/25 07:23:05;;;;;;;57.40;12.43;;;;;;;;;;5000099;28;25101;-65
2024/01/25 07:25:31;;;;;;;66.10;10.05;;;;;;;;;;5000827;28;25076;-67
2024/01/25 07:27:57;;;;;;;50.80;10.38;;;;;;;;;;4987448;28;25075;-65
2024/01/25 07:30:23;;;;;;;55.00;11.48;;;;;;;;;;5002759;28;25079;-65
2024/01/25 07:32:49;;;;;;;53.80;11.60;;;;;;;;;;5000876;28;25102;-65
2024/01/25 07:35:15;;;;;;;52.30;11.70;;;;;;;;;;4999108;28;25078;-66
2024/01/25 07:37:41;;;;;;;56.42;12.15;;;;;;;;;;5004473;28;25134;-66
2024/01/25 07:40:08;;;;;;;63.88;12.07;;;;;;;;;;4998963;28;25103;-67
2024/01/25 07:42:34;;;;;;;58.22;13.98;;;;;;;;;;5011781;28;25066;-66
2024/01/25 07:45:00;;;;;;;62.67;13.82;;;;;;;;;;5010460;28;25076;-66
2024/01/25 07:47:26;;;;;;;50.47;11.40;;;;;;;;;;5013579;28;25133;-66
2024/01/25 07:49:52;;;;;;;58.47;12.25;;;;;;;;;;5005758;28;25148;-66
2024/01/25 07:52:18;;;;;;;56.10;13.20;;;;;;;;;;4989160;28;25081;-67
2024/01/25 07:54:44;;;;;;;57.70;12.77;;;;;;;;;;5005584;28;25149;-66
2024/01/25 07:57:10;;;;;;;51.50;11.52;;;;;;;;;;5000842;28;25079;-66
2024/01/25 07:59:37;;;;;;;63.75;12.00;;;;;;;;;;5002174;28;25049;-66
2024/01/25 08:02:03;;;;;;;48.25;12.35;;;;;;;;;;5005271;28;25084;-68
2024/01/25 08:04:29;;;;;;;52.17;13.88;;;;;;;;;;5006431;28;25113;-66
2024/01/25 08:06:55;;;;;;;53.60;11.98;;;;;;;;;;5003093;28;25121;-67
2024/01/25 08:09:21;;;;;;;56.08;12.95;;;;;;;;;;5005313;28;25076;-65
2024/01/25 08:11:47;;;;;;;66.28;13.88;;;;;;;;;;5007282;28;25072;-66
2024/01/25 08:14:13;;;;;;;65.65;12.68;;;;;;;;;;4999307;28;25067;-66
2024/01/25 08:16:38;;;;;;;53.03;11.95;;;;;;;;;;4996358;28;25060;-67
2024/01/25 08:19:04;;;;;;;64.93;13.60;;;;;;;;;;5001596;28;25083;-66
2024/01/25 08:21:30;;;;;;;56.72;13.48;;;;;;;;;;5004396;28;25065;-67
2024/01/25 08:23:57;;;;;;;57.92;13.23;;;;;;;;;;5002481;28;25138;-65
2024/01/25 08:26:23;;;;;;;59.63;13.40;;;;;;;;;;5001830;28;25067;-65
2024/01/25 08:28:49;;;;;;;54.63;13.15;;;;;;;;;;5005519;28;25137;-66
2024/01/25 08:31:15;;;;;;;56.92;12.88;;;;;;;;;;5000679;28;25160;-67
2024/01/25 08:33:47;;;;;;;53.22;15.27;;;;;;;;;;4991709;28;25076;-68
2024/01/25 08:36:13;;;;;;;62.25;13.48;;;;;;;;;;4997833;28;25082;-65
2024/01/25 08:38:39;;;;;;;51.00;12.25;;;;;;;;;;5006173;28;25051;-67
2024/01/25 08:41:05;;;;;;;53.60;14.27;;;;;;;;;;5003363;28;25075;-68
2024/01/25 08:43:31;;;;;;;58.30;14.13;;;;;;;;;;5005667;28;25001;-65
2024/01/25 08:45:57;;;;;;;55.17;13.73;;;;;;;;;;5003431;28;25155;-64
2024/01/25 08:48:23;;;;;;;69.07;14.13;;;;;;;;;;4997089;28;25111;-65
2024/01/25 08:50:53;;;;;;;57.17;13.73;;;;;;;;;;5002857;28;25071;-66
2024/01/25 08:53:19;;;;;;;60.80;13.18;;;;;;;;;;5000018;28;25072;-67
2024/01/25 08:55:45;;;;;;;49.30;12.60;;;;;;;;;;5001925;28;25092;-67
2024/01/25 08:58:11;;;;;;;64.07;12.15;;;;;;;;;;5002505;28;25084;-68
2024/01/25 09:00:36;;;;;;;63.95;13.10;;;;;;;;;;4982539;28;25071;-66
2024/01/25 09:03:02;;;;;;;57.85;14.15;;;;;;;;;;5000280;28;25049;-65
2024/01/25 09:05:28;;;;;;;64.75;13.48;;;;;;;;;;4995917;28;25063;-68
2024/01/25 09:07:55;;;;;;;52.40;11.60;;;;;;;;;;4993216;28;25094;-66
2024/01/25 09:10:21;;;;;;;57.38;12.65;;;;;;;;;;4988537;28;25258;-66
2024/01/25 09:12:47;;;;;;;67.78;14.57;;;;;;;;;;5004462;28;25052;-66
2024/01/25 09:15:13;;;;;;;65.68;13.35;;;;;;;;;;4998604;28;25057;-65
2024/01/25 09:17:39;;;;;;;51.67;12.40;;;;;;;;;;5000847;28;25062;-67
2024/01/25 09:20:06;;;;;;;62.75;12.90;;;;;;;;;;4997311;28;25064;-66
2024/01/25 09:22:32;;;;;;;49.75;12.48;;;;;;;;;;5007148;28;25064;-66
2024/01/25 09:24:58;;;;;;;67.03;14.15;;;;;;;;;;5003227;28;25145;-67
2024/01/25 09:27:24;;;;;;;67.10;13.20;;;;;;;;;;5001476;28;25142;-65
2024/01/25 09:29:50;;;;;;;53.67;12.85;;;;;;;;;;4993248;28;25135;-65
2024/01/25 09:32:16;;;;;;;50.67;12.65;;;;;;;;;;4993204;28;25066;-66
2024/01/25 09:34:42;;;;;;;49.38;13.13;;;;;;;;;;5000947;28;25085;-67
2024/01/25 09:37:08;;;;;;;48.15;12.10;;;;;;;;;;4997838;28;25087;-68
2024/01/25 09:39:35;;;;;;;50.40;13.23;;;;;;;;;;4994405;28;25085;-67
2024/01/25 09:42:01;;;;;;;73.85;13.75;;;;;;;;;;5000083;28;25077;-66
2024/01/25 09:44:27;;;;;;;60.72;14.10;;;;;;;;;;4997817;28;25086;-65
2024/01/25 09:46:53;;;;;;;67.88;14.35;;;;;;;;;;4999265;28;25064;-65
2024/01/25 09:49:19;;;;;;;65.18;13.85;;;;;;;;;;4995071;28;25063;-65
2024/01/25 09:51:45;;;;;;;73.60;16.20;;;;;;;;;;5003657;28;25134;-66
2024/01/25 09:54:13;;;;;;;63.60;15.07;;;;;;;;;;4998905;28;25078;-66
2024/01/25 09:56:41;;;;;;;60.45;13.07;;;;;;;;;;5001068;28;25122;-66
2024/01/25 09:59:07;;;;;;;70.78;14.35;;;;;;;;;;4996368;28;25077;-65
2024/01/25 10:01:34;;;;;;;57.17;13.95;;;;;;;;;;5003515;28;25069;-66
2024/01/25 10:04:00;;;;;;;52.35;12.40;;;;;;;;;;5005962;28;25076;-65
2024/01/25 10:06:26;;;;;;;64.65;15.15;;;;;;;;;;5012948;28;25104;-64
2024/01/25 10:08:53;;;;;;;60.80;14.52;;;;;;;;;;4997880;28;25053;-65
2024/01/25 10:11:19;;;;;;;60.38;14.63;;;;;;;;;;5000748;28;25140;-67
2024/01/25 10:13:46;;;;;;;66.80;16.33;;;;;;;;;;5003446;28;25195;-66
2024/01/25 10:16:12;;;;;;;73.07;17.05;;;;;;;;;;5005308;28;25054;-65
2024/01/25 10:18:38;;;;;;;72.07;16.45;;;;;;;;;;4999690;28;25099;-67
2024/01/25 10:21:04;;;;;;;66.25;15.93;;;;;;;;;;4998493;28;25050;-65
2024/01/25 10:23:30;;;;;;;70.25;17.30;;;;;;;;;;5003982;28;25057;-67
2024/01/25 10:25:56;;;;;;;62.38;17.05;;;;;;;;;;4998851;28;25068;-65
2024/01/25 10:28:24;;;;;;;61.13;17.08;;;;;;;;;;5000677;28;25066;-65
2024/01/25 10:30:51;;;;;;;75.28;17.90;;;;;;;;;;5003808;28;25077;-67
2024/01/25 10:33:17;;;;;;;78.00;17.90;;;;;;;;;;4997375;28;25156;-67
2024/01/25 10:35:45;;;;;;;70.72;18.95;;;;;;;;;;4998144;28;25058;-65
2024/01/25 10:38:11;;;;;;;76.03;19.88;;;;;;;;;;4998208;28;25071;-65
2024/01/25 10:40:38;;;;;;;62.88;17.27;;;;;;;;;;4993807;28;25156;-66
2024/01/25 10:43:04;;;;;;;63.92;16.52;;;;;;;;;;4997133;28;25141;-66
2024/01/25 10:45:30;;;;;;;63.17;17.98;;;;;;;;;;4997599;28;25134;-66
2024/01/25 10:47:56;;;;;;;72.82;20.85;;;;;;;;;;4992806;28;25127;-65
2024/01/25 10:50:24;;;;;;;82.88;19.70;;;;;;;;;;5004399;28;25054;-64
2024/01/25 10:52:51;;;;;;;73.50;17.25;;;;;;;;;;4993671;28;25058;-66
2024/01/25 10:55:17;;;;;;;70.22;19.50;;;;;;;;;;4991931;28;25095;-65
2024/01/25 10:57:44;;;;;;;75.70;19.60;;;;;;;;;;5002848;28;25102;-66
2024/01/25 11:00:10;;;;;;;76.25;18.98;;;;;;;;;;4989847;28;25052;-66
2024/01/25 11:02:37;;;;;;;65.47;17.50;;;;;;;;;;4990988;28;25081;-66
2024/01/25 11:05:08;;;;;;;67.75;18.65;;;;;;;;;;4994745;28;25140;-65
2024/01/25 11:07:42;;;;;;;55.67;19.25;;;;;;;;;;4995331;28;24655;-67
2024/01/25 11:10:11;;;;;;;72.75;19.50;;;;;;;;;;4998951;28;25081;-66
2024/01/25 11:12:47;;;;;;;77.03;17.75;;;;;;;;;;5004210;28;25062;-67
2024/01/25 11:15:18;;;;;;;63.53;18.45;;;;;;;;;;5003482;28;25056;-65
2024/01/25 11:17:50;;;;;;;68.97;18.17;;;;;;;;;;4996559;28;25051;-65
2024/01/25 11:20:16;;;;;;;61.55;18.20;;;;;;;;;;4990286;28;25095;-66
2024/01/25 11:22:45;;;;;;;67.70;18.38;;;;;;;;;;4977093;28;25100;-67
2024/01/25 11:25:13;;;;;;;70.50;18.60;;;;;;;;;;5002442;28;25165;-65
2024/01/25 11:27:39;;;;;;;64.63;19.42;;;;;;;;;;5006454;28;25099;-65
2024/01/25 11:30:08;;;;;;;68.20;19.27;;;;;;;;;;5004555;28;25142;-65
2024/01/25 11:32:34;;;;;;;64.90;18.50;;;;;;;;;;4990703;28;25074;-66
2024/01/25 11:35:01;;;;;;;76.43;19.38;;;;;;;;;;5000294;28;25051;-65
2024/01/25 11:37:26;;;;;;;61.15;16.17;;;;;;;;;;5003061;28;25101;-66
2024/01/25 11:39:53;;;;;;;55.42;16.50;;;;;;;;;;4991551;28;25171;-67
2024/01/25 11:42:19;;;;;;;71.15;19.02;;;;;;;;;;5002280;28;25073;-64
2024/01/25 11:44:45;;;;;;;61.65;18.13;;;;;;;;;;4996975;28;25070;-65
2024/01/25 11:47:11;;;;;;;59.72;17.50;;;;;;;;;;5006306;28;25074;-65
2024/01/25 11:49:37;;;;;;;75.60;17.63;;;;;;;;;;4992692;28;25055;-67
2024/01/25 11:52:04;;;;;;;62.08;16.42;;;;;;;;;;4998457;28;25056;-64
2024/01/25 11:54:30;;;;;;;68.22;17.73;;;;;;;;;;4994375;28;25082;-67
2024/01/25 11:56:56;;;;;;;56.70;15.85;;;;;;;;;;4997532;28;25151;-67
2024/01/25 11:59:22;;;;;;;62.15;15.50;;;;;;;;;;4997395;28;25062;-65
2024/01/25 12:01:48;;;;;;;66.53;17.08;;;;;;;;;;4999041;28;25115;-66
2024/01/25 12:04:14;;;;;;;71.75;16.13;;;;;;;;;;4998077;28;25100;-66
2024/01/25 12:06:41;;;;;;;66.13;17.17;;;;;;;;;;5005232;28;25154;-65
2024/01/25 12:09:10;;;;;;;58.17;15.00;;;;;;;;;;4996443;28;25125;-67
2024/01/25 12:11:37;;;;;;;68.03;16.42;;;;;;;;;;4998483;28;25088;-66
2024/01/25 12:14:03;;;;;;;65.63;17.25;;;;;;;;;;4997149;28;25049;-67
2024/01/25 12:16:29;;;;;;;71.38;18.10;;;;;;;;;;5007065;28;25052;-67
2024/01/25 12:18:55;;;;;;;68.55;16.25;;;;;;;;;;4996582;28;25053;-66
2024/01/25 12:21:21;;;;;;;56.28;15.82;;;;;;;;;;4993370;28;25075;-66
2024/01/25 12:23:47;;;;;;;69.47;15.73;;;;;;;;;;5004833;28;25142;-64
2024/01/25 12:26:13;;;;;;;52.15;14.48;;;;;;;;;;5007691;28;25084;-65
2024/01/25 12:28:39;;;;;;;53.55;14.23;;;;;;;;;;5006136;28;25066;-66
2024/01/25 12:31:07;;;;;;;59.63;13.90;;;;;;;;;;5017768;28;25121;-66
2024/01/25 12:33:34;;;;;;;61.50;14.80;;;;;;;;;;5018325;28;25072;-67
2024/01/25 12:36:00;;;;;;;67.30;15.18;;;;;;;;;;5007288;28;25136;-66
2024/01/25 12:38:27;;;;;;;70.35;14.80;;;;;;;;;;5002910;28;25106;-66
2024/01/25 12:40:53;;;;;;;50.22;12.25;;;;;;;;;;5004263;28;25064;-68
2024/01/25 12:43:23;;;;;;;49.20;13.40;;;;;;;;;;4992539;28;25075;-66
2024/01/25 12:45:49;;;;;;;58.53;13.65;;;;;;;;;;5001994;28;25059;-65
2024/01/25 12:48:15;;;;;;;56.72;13.50;;;;;;;;;;5000632;28;25085;-66
2024/01/25 12:50:41;;;;;;;53.60;13.98;;;;;;;;;;5006075;28;25132;-67
2024/01/25 12:53:08;;;;;;;52.58;13.18;;;;;;;;;;5002502;28;25145;-64
2024/01/25 12:55:34;;;;;;;69.22;15.45;;;;;;;;;;4994282;28;25050;-66
2024/01/25 12:58:00;;;;;;;56.22;13.43;;;;;;;;;;4997990;28;25112;-66
2024/01/25 13:00:26;;;;;;;53.33;12.55;;;;;;;;;;4999669;28;25094;-66
2024/01/25 13:02:54;;;;;;;56.75;13.77;;;;;;;;;;4998123;28;25082;-65
2024/01/25 13:05:20;;;;;;;57.50;12.50;;;;;;;;;;4995143;28;25066;-65
2024/01/25 13:07:46;;;;;;;57.53;13.52;;;;;;;;;;5002499;28;25075;-65
2024/01/25 13:10:12;;;;;;;74.72;12.88;;;;;;;;;;5000006;28;25070;-65
2024/01/25 13:12:38;;;;;;;60.10;13.43;;;;;;;;;;4998193;28;25053;-66
2024/01/25 13:15:05;;;;;;;58.90;12.45;;;;;;;;;;4992317;28;25141;-67
2024/01/25 13:17:31;;;;;;;62.42;13.25;;;;;;;;;;4996156;28;25152;-64
2024/01/25 13:20:00;;;;;;;58.08;12.23;;;;;;;;;;4999600;28;25097;-66
2024/01/25 13:22:26;;;;;;;63.03;13.13;;;;;;;;;;4996246;28;25054;-69
2024/01/25 13:24:52;;;;;;;56.15;13.10;;;;;;;;;;4989515;28;25141;-66
2024/01/25 13:27:18;;;;;;;67.93;12.98;;;;;;;;;;4995208;28;25089;-66
2024/01/25 13:29:44;;;;;;;57.58;13.60;;;;;;;;;;5005730;28;25080;-67
2024/01/25 13:32:10;;;;;;;56.35;13.27;;;;;;;;;;4996820;28;25057;-67
2024/01/25 13:34:37;;;;;;;71.22;16.67;;;;;;;;;;4992888;28;25115;-67
2024/01/25 13:37:02;;;;;;;63.15;13.52;;;;;;;;;;5003245;28;25060;-67
2024/01/25 13:39:29;;;;;;;49.15;14.90;;;;;;;;;;5002553;28;25068;-65
2024/01/25 13:41:56;;;;;;;60.80;15.10;;;;;;;;;;4994488;28;25067;-69
2024/01/25 13:44:22;;;;;;;45.58;14.10;;;;;;;;;;5003502;28;25132;-67
2024/01/25 13:46:48;;;;;;;63.42;15.57;;;;;;;;;;5002973;28;25062;-66
2024/01/25 13:49:14;;;;;;;60.13;16.52;;;;;;;;;;4998854;28;25045;-67
2024/01/25 13:51:40;;;;;;;54.30;16.02;;;;;;;;;;5002641;28;25094;-67
2024/01/25 13:54:06;;;;;;;55.13;16.45;;;;;;;;;;5000250;28;25133;-66
2024/01/25 13:56:32;;;;;;;50.20;16.77;;;;;;;;;;4998605;28;25080;-67
2024/01/25 13:58:58;;;;;;;71.85;16.90;;;;;;;;;;5007023;28;25054;-66
2024/01/25 14:01:24;;;;;;;61.25;19.13;;;;;;;;;;5004183;28;25110;-66
2024/01/25 14:03:51;;;;;;;60.67;18.05;;;;;;;;;;5003829;28;25210;-65
2024/01/25 14:06:17;;;;;;;52.97;18.67;;;;;;;;;;4997689;28;25071;-65
2024/01/25 14:08:43;;;;;;;47.85;18.45;;;;;;;;;;4995993;28;25065;-67
2024/01/25 14:11:10;;;;;;;67.38;20.00;;;;;;;;;;4998536;28;25055;-68
2024/01/25 14:13:36;;;;;;;52.58;18.80;;;;;;;;;;4992828;28;25064;-67